createdAt,value
2023-11-07T00:04:02.282Z,21.19
2023-11-07T00:09:05.051Z,21.16
2023-11-07T00:14:07.164Z,21.17
2023-11-07T00:19:09.267Z,21.17
2023-11-07T00:24:11.423Z,21.17
2023-11-07T00:29:13.565Z,21.19
2023-11-07T00:34:17.714Z,21.16
2023-11-07T00:39:19.874Z,21.17
2023-11-07T00:44:22.934Z,21.15
2023-11-07T00:49:25.326Z,21.16
2023-11-07T00:54:27.391Z,21.16
2023-11-07T00:59:29.628Z,21.15
2023-11-07T01:04:31.788Z,21.14
2023-11-07T01:09:33.906Z,21.14
2023-11-07T01:14:36.526Z,21.15
2023-11-07T01:19:38.591Z,21.14
2023-11-07T01:24:40.645Z,21.13
2023-11-07T01:29:42.773Z,21.15
2023-11-07T01:34:45.102Z,21.11
2023-11-07T01:39:47.270Z,21.14
2023-11-07T01:44:51.261Z,21.09
2023-11-07T01:49:53.732Z,21.13
2023-11-07T01:54:57.003Z,21.12
2023-11-07T01:59:59.120Z,21.11
2023-11-07T02:05:01.468Z,21.12
2023-11-07T02:10:05.859Z,21.11
2023-11-07T02:15:21.131Z,21.09
2023-11-07T02:20:23.423Z,21.07
2023-11-07T02:25:25.670Z,21.08
2023-11-07T02:30:27.801Z,21.08
2023-11-07T02:35:29.878Z,21.07
2023-11-07T02:40:32.220Z,21.08
2023-11-07T02:45:38.034Z,21.07
2023-11-07T02:50:40.431Z,21.08
2023-11-07T02:55:42.788Z,21.06
2023-11-07T03:00:46.196Z,21.07
2023-11-07T03:05:48.325Z,21.04
2023-11-07T03:10:50.494Z,21.03
2023-11-07T03:15:52.589Z,21.04
2023-11-07T03:20:54.696Z,21.04
2023-11-07T03:25:56.736Z,21.03
2023-11-07T03:30:59.610Z,21.03
2023-11-07T03:36:02.255Z,21.02
2023-11-07T03:41:04.635Z,21.01
2023-11-07T03:46:07.459Z,21.01
2023-11-07T03:51:09.504Z,21.03
2023-11-07T03:56:11.505Z,21.02
2023-11-07T04:01:13.531Z,21.01
2023-11-07T04:06:15.881Z,21.00
2023-11-07T04:11:19.699Z,21.01
2023-11-07T04:16:21.777Z,21.01
2023-11-07T04:21:24.027Z,21.01
2023-11-07T04:26:28.607Z,20.99
2023-11-07T04:31:30.699Z,20.99
2023-11-07T04:36:32.796Z,20.96
2023-11-07T04:41:35.441Z,20.98
2023-11-07T04:46:40.489Z,20.97
2023-11-07T04:51:42.535Z,20.96
2023-11-07T04:56:45.586Z,20.97
2023-11-07T05:01:49.623Z,20.97
2023-11-07T05:06:52.108Z,20.98
2023-11-07T05:11:55.944Z,20.98
2023-11-07T05:16:58.044Z,20.90
2023-11-07T05:22:00.152Z,20.96
2023-11-07T05:27:02.241Z,20.96
2023-11-07T05:32:04.949Z,20.95
2023-11-07T05:37:07.296Z,20.95
2023-11-07T05:42:10.251Z,20.95
2023-11-07T05:47:12.385Z,20.94
2023-11-07T05:52:14.454Z,20.94
2023-11-07T05:57:16.501Z,20.93
2023-11-07T06:02:18.769Z,20.92
2023-11-07T06:07:20.799Z,20.93
2023-11-07T06:12:22.941Z,20.94
2023-11-07T06:17:25.059Z,20.94
2023-11-07T06:22:27.856Z,20.94
2023-11-07T06:27:29.972Z,20.98
2023-11-07T06:32:32.121Z,20.93
2023-11-07T06:37:35.141Z,21.02
2023-11-07T06:42:37.340Z,20.99
2023-11-07T06:47:43.752Z,21.02
2023-11-07T06:52:53.612Z,21.02
2023-11-07T06:57:57.061Z,21.02
2023-11-07T07:03:02.654Z,21.04
2023-11-07T07:08:05.199Z,21.03
2023-11-07T07:13:07.272Z,21.03
2023-11-07T07:18:10.090Z,21.07
2023-11-07T07:23:13.118Z,21.04
2023-11-07T07:28:15.248Z,21.06
2023-11-07T07:33:20.434Z,21.08
2023-11-07T07:38:26.123Z,21.10
2023-11-07T07:43:29.135Z,21.11
2023-11-07T07:48:31.311Z,21.11
2023-11-07T07:53:35.719Z,21.15
2023-11-07T07:58:37.816Z,21.16
2023-11-07T08:03:40.193Z,21.09
2023-11-07T08:08:42.532Z,21.20
2023-11-07T08:13:44.629Z,21.16
2023-11-07T08:18:48.000Z,21.23
2023-11-07T08:23:50.244Z,21.20
2023-11-07T08:28:52.271Z,21.21
2023-11-07T08:33:54.651Z,21.23
2023-11-07T08:38:57.007Z,21.23
2023-11-07T08:43:59.200Z,21.23
2023-11-07T08:49:01.342Z,21.22
2023-11-07T08:54:03.567Z,21.24
2023-11-07T08:59:05.806Z,21.23
2023-11-07T09:04:11.003Z,21.26
2023-11-07T09:09:16.856Z,21.27
2023-11-07T09:14:20.297Z,21.27
2023-11-07T09:19:22.456Z,21.26
2023-11-07T09:24:25.473Z,21.29
2023-11-07T09:29:28.486Z,21.29
2023-11-07T09:34:32.309Z,21.30
2023-11-07T09:39:35.431Z,21.30
2023-11-07T09:44:40.634Z,21.36
2023-11-07T09:49:42.744Z,21.37
2023-11-07T09:54:49.246Z,21.37
2023-11-07T09:59:55.721Z,21.37
2023-11-07T10:04:59.304Z,21.36
2023-11-07T10:10:06.854Z,21.39
2023-11-07T10:15:22.959Z,21.39
2023-11-07T10:20:25.240Z,21.40
2023-11-07T10:25:34.410Z,21.42
2023-11-07T10:30:49.069Z,21.42
2023-11-07T10:35:56.413Z,21.42
2023-11-07T10:41:00.071Z,21.43
2023-11-07T10:46:06.590Z,21.43
2023-11-07T10:51:10.521Z,21.44
2023-11-07T10:56:19.457Z,21.45
2023-11-07T11:01:21.826Z,21.46
2023-11-07T11:06:27.604Z,21.46
2023-11-07T11:11:32.519Z,21.45
2023-11-07T11:16:34.778Z,21.48
2023-11-07T11:21:43.892Z,21.48
2023-11-07T11:26:54.840Z,21.51
2023-11-07T11:31:58.029Z,21.50
2023-11-07T11:37:03.454Z,21.51
2023-11-07T11:42:10.820Z,21.50
2023-11-07T11:48:05.493Z,21.52
2023-11-07T11:53:10.607Z,21.47
2023-11-07T11:58:17.928Z,21.52
2023-11-07T12:03:20.867Z,21.52
2023-11-07T12:08:45.369Z,21.50
2023-11-07T12:13:48.491Z,21.51
2023-11-07T12:18:54.117Z,21.52
2023-11-07T12:23:59.284Z,21.53
2023-11-07T12:29:01.459Z,21.53
2023-11-07T12:34:03.982Z,21.52
2023-11-07T12:39:07.684Z,21.55
2023-11-07T12:44:14.135Z,21.55
2023-11-07T12:49:18.057Z,21.55
2023-11-07T12:54:27.649Z,21.60
2023-11-07T12:59:29.806Z,21.60
2023-11-07T13:04:31.999Z,21.61
2023-11-07T13:09:35.509Z,21.63
2023-11-07T13:14:38.457Z,21.64
2023-11-07T13:19:40.598Z,21.63
2023-11-07T13:24:42.699Z,21.65
2023-11-07T13:29:44.996Z,21.69
2023-11-07T13:34:47.162Z,21.69
2023-11-07T13:39:51.046Z,21.70
2023-11-07T13:44:53.277Z,21.73
2023-11-07T13:49:55.424Z,21.75
2023-11-07T13:54:57.430Z,21.74
2023-11-07T13:59:59.704Z,21.76
2023-11-07T14:05:01.906Z,21.75
2023-11-07T14:10:09.237Z,21.76
2023-11-07T14:15:15.149Z,21.78
2023-11-07T14:20:20.490Z,21.79
2023-11-07T14:25:24.877Z,21.80
2023-11-07T14:30:37.713Z,21.79
2023-11-07T14:35:42.229Z,21.80
2023-11-07T14:40:46.836Z,21.84
2023-11-07T14:45:49.132Z,21.82
2023-11-07T14:50:54.611Z,21.83
2023-11-07T14:55:56.950Z,21.80
2023-11-07T15:00:59.011Z,21.79
2023-11-07T15:06:03.928Z,21.77
2023-11-07T15:11:06.939Z,21.78
2023-11-07T15:16:09.164Z,21.76
2023-11-07T15:21:12.909Z,21.74
2023-11-07T15:26:15.054Z,21.78
2023-11-07T15:31:17.322Z,21.75
2023-11-07T15:36:19.874Z,21.75
2023-11-07T15:41:22.560Z,21.75
2023-11-07T15:46:24.751Z,21.74
2023-11-07T15:51:28.958Z,21.73
2023-11-07T15:56:31.364Z,21.72
2023-11-07T16:01:34.001Z,21.73
2023-11-07T16:06:36.298Z,21.74
2023-11-07T16:11:38.469Z,21.74
2023-11-07T16:16:40.588Z,21.76
2023-11-07T16:21:42.452Z,21.75
2023-11-07T16:26:44.919Z,21.74
2023-11-07T16:31:47.643Z,21.75
2023-11-07T16:36:49.767Z,21.75
2023-11-07T16:41:52.800Z,21.77
2023-11-07T16:46:54.895Z,21.77
2023-11-07T16:51:57.014Z,21.76
2023-11-07T16:56:59.428Z,21.78
2023-11-07T17:02:01.592Z,21.78
2023-11-07T17:07:07.044Z,21.78
2023-11-07T17:12:09.344Z,21.79
2023-11-07T17:17:11.632Z,21.78
2023-11-07T17:22:14.545Z,21.78
2023-11-07T17:27:16.822Z,21.77
2023-11-07T17:32:20.928Z,21.77
2023-11-07T17:37:22.939Z,21.77
2023-11-07T17:42:25.398Z,21.78
2023-11-07T17:47:30.172Z,21.79
2023-11-07T17:52:32.349Z,21.79
2023-11-07T17:57:34.509Z,21.80
2023-11-07T18:02:36.736Z,21.77
2023-11-07T18:07:39.071Z,21.77
2023-11-07T18:12:41.268Z,21.76
2023-11-07T18:17:43.386Z,21.73
2023-11-07T18:22:45.668Z,21.71
2023-11-07T18:27:47.785Z,21.68
2023-11-07T18:32:49.995Z,21.67
2023-11-07T18:37:52.166Z,21.65
2023-11-07T18:42:54.388Z,21.63
2023-11-07T18:47:56.769Z,21.58
2023-11-07T18:52:59.175Z,21.58
2023-11-07T18:58:01.545Z,21.57
2023-11-07T19:03:03.759Z,21.55
2023-11-07T19:08:06.011Z,21.53
2023-11-07T19:13:08.163Z,21.47
2023-11-07T19:18:10.569Z,21.49
2023-11-07T19:23:15.298Z,21.49
2023-11-07T19:28:17.388Z,21.47
2023-11-07T19:33:20.304Z,21.46
2023-11-07T19:38:24.416Z,21.42
2023-11-07T19:43:34.891Z,21.42
2023-11-07T19:48:45.104Z,21.41
2023-11-07T19:53:48.015Z,21.38
2023-11-07T19:59:00.079Z,21.37
2023-11-07T20:04:04.161Z,21.36
2023-11-07T20:09:06.500Z,21.36
2023-11-07T20:14:09.984Z,21.33
2023-11-07T20:19:12.209Z,21.34
2023-11-07T20:24:14.494Z,21.32
2023-11-07T20:29:16.569Z,21.32
2023-11-07T20:34:19.770Z,21.30
2023-11-07T20:39:22.042Z,21.34
2023-11-07T20:44:32.078Z,21.36
2023-11-07T20:49:45.605Z,21.37
2023-11-07T20:54:49.639Z,21.36
2023-11-07T20:59:52.955Z,21.35
2023-11-07T21:04:56.032Z,21.36
2023-11-07T21:09:59.076Z,21.34
2023-11-07T21:15:01.476Z,21.36
2023-11-07T21:20:07.495Z,21.36
2023-11-07T21:25:09.989Z,21.37
2023-11-07T21:30:12.581Z,21.36
2023-11-07T21:35:19.612Z,21.27
2023-11-07T21:40:21.975Z,21.35
2023-11-07T21:45:24.049Z,21.36
2023-11-07T21:50:26.349Z,21.36
2023-11-07T21:55:28.559Z,21.32
2023-11-07T22:00:30.890Z,21.34
2023-11-07T22:05:33.046Z,21.34
2023-11-07T22:10:35.621Z,21.33
2023-11-07T22:15:37.790Z,21.33
2023-11-07T22:20:39.886Z,21.31
2023-11-07T22:25:41.916Z,21.24
2023-11-07T22:30:44.451Z,21.31
2023-11-07T22:35:47.994Z,21.31
2023-11-07T22:40:50.666Z,21.30
2023-11-07T22:45:52.957Z,21.30
2023-11-07T22:50:55.563Z,21.29
2023-11-07T22:55:59.788Z,21.30
2023-11-07T23:01:04.188Z,21.28
2023-11-07T23:06:07.287Z,21.30
2023-11-07T23:11:09.794Z,21.28
2023-11-07T23:16:12.517Z,21.26
2023-11-07T23:21:14.448Z,21.27
2023-11-07T23:26:16.906Z,21.28
2023-11-07T23:31:22.752Z,21.28
2023-11-07T23:36:26.483Z,21.29
2023-11-07T23:41:28.578Z,21.28
2023-11-07T23:46:30.621Z,21.28
2023-11-07T23:51:33.029Z,21.26
2023-11-07T23:56:35.772Z,21.25
